Time;durP1;ratioP1;P1;durP2;ratioP2;P2;SDS_P1;SDS_P2;PMS_P1;PMS_P2;Temp;Humidity;BMP_temperature;BMP_pressure;BME280_temperature;BME280_humidity;BME280_pressure;Samples;Min_cycle;Max_cycle;Signal;HPM_P1;HPM_P2
2023/05/14 00:02:00;;;;;;;3.63;3.15;;;14.10;97.20;14.10;101006.00;;;;4922194;28;110653;-69
2023/05/14 00:04:26;;;;;;;4.47;2.40;;;14.10;97.40;14.00;101005.00;;;;4922766;28;107194;-69
2023/05/14 00:06:51;;;;;;;3.53;2.57;;;14.00;97.70;13.90;100998.00;;;;4926618;28;123330;-69
2023/05/14 00:09:17;;;;;;;4.87;3.57;;;13.90;97.90;13.80;100999.00;;;;4925432;28;121962;-69
2023/05/14 00:11:43;;;;;;;3.93;2.17;;;13.80;98.30;13.70;100995.00;;;;4923812;28;101949;-69
2023/05/14 00:14:09;;;;;;;3.50;2.10;;;13.70;98.70;13.70;100989.00;;;;4923649;28;109184;-69
2023/05/14 00:16:34;;;;;;;4.90;3.17;;;13.70;99.10;13.70;100982.00;;;;4928624;28;93419;-69
2023/05/14 00:19:00;;;;;;;2.63;2.43;;;13.60;99.50;13.60;100989.00;;;;4925968;28;122677;-69
2023/05/14 00:21:26;;;;;;;3.50;3.10;;;13.60;99.70;13.60;100977.00;;;;4930741;28;110658;-68
2023/05/14 00:23:51;;;;;;;7.27;3.37;;;13.60;99.90;13.60;100975.00;;;;4926058;28;107569;-68
2023/05/14 00:26:17;;;;;;;2.60;2.33;;;13.60;99.90;13.60;100977.00;;;;4928443;28;121841;-68
2023/05/14 00:28:43;;;;;;;4.20;3.23;;;13.60;99.90;13.60;100975.00;;;;4925040;28;93076;-68
2023/05/14 00:31:08;;;;;;;2.33;2.13;;;13.50;99.90;13.50;100969.00;;;;4929533;28;93130;-68
2023/05/14 00:33:34;;;;;;;2.27;2.03;;;13.50;99.90;13.50;100976.00;;;;4923873;28;95667;-68
2023/05/14 00:36:00;;;;;;;2.70;2.17;;;13.50;99.90;13.60;100970.00;;;;4926535;28;98129;-68
2023/05/14 00:38:27;;;;;;;4.33;2.53;;;13.50;99.90;13.60;100966.00;;;;4926881;28;123109;-68
2023/05/14 00:40:53;;;;;;;3.57;3.27;;;13.60;99.90;13.60;100971.00;;;;4928006;28;94589;-67
2023/05/14 00:43:19;;;;;;;2.37;2.17;;;13.60;99.90;13.60;100963.00;;;;4924054;28;92776;-67
2023/05/14 00:45:48;;;;;;;2.57;2.37;;;13.60;99.90;13.70;100970.00;;;;4926557;28;93357;-69
2023/05/14 00:48:14;;;;;;;2.70;2.47;;;13.60;99.90;13.70;100965.00;;;;4927329;28;93042;-68
2023/05/14 00:50:40;;;;;;;4.53;2.57;;;13.60;99.90;13.70;100970.00;;;;4925434;28;92459;-69
2023/05/14 00:53:09;;;;;;;3.40;2.93;;;13.70;99.90;13.70;100966.00;;;;4924548;28;107755;-68
2023/05/14 00:55:38;;;;;;;3.23;2.57;;;13.70;99.90;13.60;100959.00;;;;4927705;28;95177;-68
2023/05/14 00:58:08;;;;;;;3.33;2.53;;;13.60;99.90;13.60;100965.00;;;;4924580;28;95013;-68
2023/05/14 01:00:35;;;;;;;2.50;2.30;;;13.60;99.90;13.60;100961.00;;;;4926594;28;95527;-68
2023/05/14 01:03:02;;;;;;;4.87;2.53;;;13.60;99.90;13.50;100955.00;;;;4925170;28;92863;-68
2023/05/14 01:05:42;;;;;;;3.00;2.70;;;13.50;99.90;13.50;100958.00;;;;4925238;28;115646;-68
2023/05/14 01:08:38;;;;;;;3.83;2.07;;;13.50;99.90;13.50;100958.00;;;;4926161;28;93040;-68
2023/05/14 01:11:20;;;;;;;3.23;2.40;;;13.50;99.90;13.50;100961.00;;;;4927487;28;103459;-68
2023/05/14 01:14:17;;;;;;;5.97;2.40;;;13.50;99.90;13.40;100953.00;;;;4936682;28;99684;-68
2023/05/14 01:16:44;;;;;;;3.03;2.47;;;13.50;99.90;13.40;100946.00;;;;4924828;28;107869;-70
2023/05/14 01:19:25;;;;;;;3.93;3.57;;;13.40;99.90;13.40;100948.00;;;;4923934;28;107765;-68
2023/05/14 01:21:51;;;;;;;6.27;3.40;;;13.40;99.90;13.30;100955.00;;;;4925421;28;101039;-68
2023/05/14 01:24:16;;;;;;;6.57;3.60;;;13.30;99.90;13.30;100948.00;;;;4924188;28;108198;-68
2023/05/14 01:26:42;;;;;;;3.60;3.30;;;13.30;99.90;13.20;100957.00;;;;4925060;28;122529;-69
2023/05/14 01:29:25;;;;;;;3.20;2.70;;;13.20;99.90;13.10;100948.00;;;;4928502;28;121316;-68
2023/05/14 01:31:56;;;;;;;3.43;3.03;;;13.20;99.90;13.10;100942.00;;;;4925052;28;107824;-67
2023/05/14 01:34:25;;;;;;;2.90;2.33;;;13.10;99.90;13.10;100943.00;;;;4924560;28;108800;-70
2023/05/14 01:36:51;;;;;;;3.50;3.20;;;13.10;99.90;13.00;100949.00;;;;4923440;28;114796;-68
2023/05/14 01:39:18;;;;;;;3.17;2.63;;;13.10;99.90;13.00;100946.00;;;;4924777;28;123687;-68
2023/05/14 01:41:45;;;;;;;2.90;2.70;;;13.00;99.90;12.90;100943.00;;;;4926789;28;92209;-68
2023/05/14 01:44:11;;;;;;;4.20;2.90;;;12.90;99.90;12.90;100936.00;;;;4929367;28;92847;-67
2023/05/14 01:46:36;;;;;;;2.57;2.30;;;12.90;99.90;12.90;100941.00;;;;4928997;28;93170;-68
2023/05/14 01:49:02;;;;;;;3.03;2.73;;;12.90;99.90;12.80;100938.00;;;;4929290;28;122317;-68
2023/05/14 01:51:28;;;;;;;3.87;3.03;;;12.80;99.90;12.80;100932.00;;;;4928198;28;104894;-68
2023/05/14 01:53:53;;;;;;;3.07;2.83;;;12.80;99.90;12.70;100933.00;;;;4929633;28;109382;-68
2023/05/14 01:56:22;;;;;;;3.03;2.30;;;12.80;99.90;12.70;100933.00;;;;4926341;28;94053;-68
2023/05/14 01:58:48;;;;;;;2.23;2.13;;;12.70;99.90;12.60;100928.00;;;;4923281;28;92885;-68
2023/05/14 02:01:13;;;;;;;2.53;2.17;;;12.70;99.90;12.60;100935.00;;;;4924377;28;92944;-68
2023/05/14 02:03:39;;;;;;;3.77;3.00;;;12.60;99.90;12.50;100934.00;;;;4925780;28;109134;-68
2023/05/14 02:06:05;;;;;;;4.00;2.93;;;12.60;99.90;12.40;100937.00;;;;4924012;28;121280;-68
2023/05/14 02:08:30;;;;;;;3.17;2.33;;;12.50;99.90;12.40;100937.00;;;;4924847;28;110401;-68
2023/05/14 02:10:56;;;;;;;3.53;3.23;;;12.50;99.90;12.30;100927.00;;;;4928640;28;111065;-68
2023/05/14 02:13:22;;;;;;;4.20;3.20;;;12.40;99.90;12.20;100927.00;;;;4929022;28;108403;-68
2023/05/14 02:15:48;;;;;;;3.63;2.70;;;12.30;99.90;12.10;100927.00;;;;4928939;28;122525;-69
2023/05/14 02:18:14;;;;;;;5.13;3.10;;;12.20;99.90;12.10;100916.00;;;;4928946;28;121671;-68
2023/05/14 02:20:40;;;;;;;3.10;2.80;;;12.10;99.90;12.00;100914.00;;;;4927464;28;92990;-69
2023/05/14 02:23:05;;;;;;;2.67;2.47;;;12.10;99.90;11.90;100917.00;;;;4928066;28;92886;-69
2023/05/14 02:25:31;;;;;;;3.47;3.17;;;12.00;99.90;11.80;100918.00;;;;4925975;28;113200;-70
2023/05/14 02:27:57;;;;;;;4.47;3.03;;;11.90;99.90;11.80;100918.00;;;;4924816;28;122002;-70
2023/05/14 02:30:30;;;;;;;3.07;2.20;;;11.90;99.90;11.70;100916.00;;;;4930205;28;110013;-69
2023/05/14 02:32:56;;;;;;;3.63;2.93;;;11.80;99.90;11.70;100914.00;;;;4926563;28;93159;-69
2023/05/14 02:35:24;;;;;;;2.37;2.17;;;11.80;99.90;11.70;100908.00;;;;4922480;28;123386;-69
2023/05/14 02:37:50;;;;;;;4.00;3.10;;;11.80;99.90;11.70;100910.00;;;;4921204;28;123654;-69
2023/05/14 02:40:15;;;;;;;4.17;2.40;;;11.70;99.90;11.70;100911.00;;;;4924195;28;92766;-69
2023/05/14 02:42:41;;;;;;;6.67;2.80;;;11.70;99.90;11.60;100908.00;;;;4923429;28;93979;-69
2023/05/14 02:45:07;;;;;;;3.83;3.07;;;11.70;99.90;11.60;100906.00;;;;4927846;28;123664;-69
2023/05/14 02:47:33;;;;;;;4.90;2.77;;;11.70;99.90;11.60;100904.00;;;;4920648;28;102057;-69
2023/05/14 02:49:58;;;;;;;3.13;2.83;;;11.60;99.90;11.50;100902.00;;;;4924693;28;109811;-69
2023/05/14 02:52:24;;;;;;;3.13;2.83;;;11.60;99.90;11.50;100905.00;;;;4926000;28;108785;-69
2023/05/14 02:54:50;;;;;;;3.90;2.83;;;11.60;99.90;11.50;100905.00;;;;4924548;28;121376;-70
2023/05/14 02:57:15;;;;;;;3.23;2.93;;;11.50;99.90;11.50;100896.00;;;;4925443;28;121881;-69
2023/05/14 02:59:41;;;;;;;2.63;2.27;;;11.50;99.90;11.40;100903.00;;;;4925247;28;109551;-69
2023/05/14 03:02:07;;;;;;;6.00;2.33;;;11.50;99.90;11.40;100893.00;;;;4920712;28;93998;-69
2023/05/14 03:04:32;;;;;;;4.00;2.90;;;11.50;99.90;11.40;100895.00;;;;4925469;28;123663;-69
2023/05/14 03:06:58;;;;;;;3.27;2.87;;;11.50;99.90;11.40;100889.00;;;;4921838;28;93719;-69
2023/05/14 03:09:24;;;;;;;3.37;3.07;;;11.50;99.90;11.40;100898.00;;;;4925582;28;109074;-69
2023/05/14 03:11:49;;;;;;;6.60;3.60;;;11.50;99.90;11.30;100899.00;;;;4926659;28;92760;-69
2023/05/14 03:14:15;;;;;;;3.27;2.93;;;11.40;99.90;11.30;100894.00;;;;4929479;28;124486;-69
2023/05/14 03:16:41;;;;;;;4.13;2.93;;;11.40;99.90;11.20;100889.00;;;;4926665;28;122572;-69
2023/05/14 03:19:08;;;;;;;3.30;2.83;;;11.30;99.90;11.20;100908.00;;;;4924496;28;104287;-69
2023/05/14 03:21:34;;;;;;;5.10;3.60;;;11.30;99.90;11.20;100893.00;;;;4927211;28;93139;-69
2023/05/14 03:24:00;;;;;;;3.30;2.87;;;11.30;99.90;11.10;100896.00;;;;4925158;28;101220;-69
2023/05/14 03:26:25;;;;;;;5.57;3.37;;;11.20;99.90;11.00;100896.00;;;;4924750;28;122155;-69
2023/05/14 03:28:51;;;;;;;5.00;3.43;;;11.10;99.90;10.90;100893.00;;;;4923033;28;93836;-69
2023/05/14 03:31:17;;;;;;;6.17;3.37;;;11.10;99.90;10.90;100891.00;;;;4926865;28;92981;-69
2023/05/14 03:33:42;;;;;;;3.27;2.97;;;11.00;99.90;10.80;100893.00;;;;4925132;28;121394;-69
2023/05/14 03:36:08;;;;;;;6.27;3.87;;;11.00;99.90;10.80;100891.00;;;;4928491;28;122802;-69
2023/05/14 03:38:37;;;;;;;4.33;3.47;;;10.90;99.90;10.80;100881.00;;;;4925748;28;109640;-69
2023/05/14 03:41:02;;;;;;;3.87;2.37;;;10.90;99.90;10.70;100884.00;;;;4929495;28;108850;-69
2023/05/14 03:43:28;;;;;;;3.80;2.57;;;10.80;99.90;10.70;100894.00;;;;4926161;28;120818;-69
2023/05/14 03:45:54;;;;;;;4.43;3.40;;;10.80;99.90;10.70;100892.00;;;;4926997;28;122018;-69
2023/05/14 03:48:19;;;;;;;7.00;3.60;;;10.80;99.90;10.70;100884.00;;;;4928964;28;110463;-69
2023/05/14 03:50:45;;;;;;;7.83;3.57;;;10.80;99.90;10.70;100887.00;;;;4928942;28;93786;-69
2023/05/14 03:53:11;;;;;;;2.87;2.67;;;10.80;99.90;10.70;100879.00;;;;4928113;28;92937;-69
2023/05/14 03:55:37;;;;;;;3.83;2.97;;;10.80;99.90;10.70;100881.00;;;;4925227;28;122103;-69
2023/05/14 03:58:06;;;;;;;4.57;2.77;;;10.80;99.90;10.70;100871.00;;;;4924673;28;110031;-69
2023/05/14 04:00:32;;;;;;;3.13;2.63;;;10.80;99.90;10.80;100876.00;;;;4931032;28;92978;-69
2023/05/14 04:02:57;;;;;;;3.13;2.60;;;10.80;99.90;10.80;100878.00;;;;4925556;28;93953;-69
2023/05/14 04:05:23;;;;;;;4.07;3.37;;;10.90;99.90;10.90;100879.00;;;;4926192;28;122361;-69
2023/05/14 04:07:51;;;;;;;3.87;3.30;;;10.90;99.90;10.90;100877.00;;;;4925028;28;108730;-69
2023/05/14 04:10:17;;;;;;;4.70;3.00;;;10.90;99.90;10.90;100880.00;;;;4927307;28;93188;-69
2023/05/14 04:12:42;;;;;;;4.33;3.17;;;10.90;99.90;10.90;100878.00;;;;4923227;28;109567;-69
2023/05/14 04:15:09;;;;;;;3.97;2.90;;;11.00;99.90;11.00;100883.00;;;;4928264;28;111207;-69
2023/05/14 04:17:37;;;;;;;4.70;3.47;;;11.00;99.90;11.10;100878.00;;;;4928239;28;94875;-69
2023/05/14 04:20:04;;;;;;;4.10;3.73;;;11.10;99.90;11.10;100887.00;;;;4925312;28;110036;-70
2023/05/14 04:22:29;;;;;;;8.47;3.47;;;11.20;99.90;11.20;100872.00;;;;4926206;28;107132;-71
2023/05/14 04:24:55;;;;;;;4.20;3.30;;;11.20;99.90;11.30;100869.00;;;;4924694;28;93023;-69
2023/05/14 04:27:21;;;;;;;4.20;3.00;;;11.30;99.90;11.40;100867.00;;;;4925002;28;108957;-68
2023/05/14 04:29:48;;;;;;;3.13;2.77;;;11.40;99.90;11.40;100864.00;;;;4926166;28;92945;-69
2023/05/14 04:32:13;;;;;;;4.07;3.43;;;11.40;99.90;11.50;100879.00;;;;4930090;28;96513;-69
2023/05/14 04:34:40;;;;;;;4.87;3.53;;;11.50;99.90;11.60;100874.00;;;;4928989;28;122164;-68
2023/05/14 04:37:05;;;;;;;5.70;3.67;;;11.60;99.90;11.70;100887.00;;;;4924446;28;93073;-69
2023/05/14 04:39:31;;;;;;;6.20;4.30;;;11.70;99.90;11.80;100885.00;;;;4924810;28;95382;-70
2023/05/14 04:41:57;;;;;;;4.20;3.37;;;11.70;99.90;11.70;100894.00;;;;4925453;28;124156;-69
2023/05/14 04:44:22;;;;;;;4.10;3.53;;;11.80;99.90;11.70;100889.00;;;;4923134;28;120493;-69
2023/05/14 04:46:48;;;;;;;3.83;3.07;;;11.70;99.90;11.70;100894.00;;;;4931114;28;108905;-69
2023/05/14 04:49:14;;;;;;;7.40;3.87;;;11.70;99.90;11.70;100896.00;;;;4927426;28;93122;-69
2023/05/14 04:51:40;;;;;;;4.87;4.17;;;11.80;99.90;11.80;100884.00;;;;4924446;28;124251;-69
2023/05/14 04:54:05;;;;;;;3.73;3.43;;;11.80;99.90;11.80;100879.00;;;;4924573;28;93764;-69
2023/05/14 04:56:31;;;;;;;5.47;4.60;;;11.80;99.90;11.80;100884.00;;;;4928327;28;110332;-69
2023/05/14 04:58:57;;;;;;;4.70;3.50;;;11.80;99.90;11.80;100888.00;;;;4922144;28;92991;-69
2023/05/14 05:01:22;;;;;;;6.47;4.53;;;11.80;99.90;11.90;100881.00;;;;4924050;28;121600;-69
2023/05/14 05:03:48;;;;;;;3.90;3.60;;;11.90;99.90;12.00;100884.00;;;;4925144;28;122552;-69
2023/05/14 05:06:14;;;;;;;4.60;3.30;;;11.90;99.90;12.10;100886.00;;;;4921979;28;109168;-69
2023/05/14 05:08:40;;;;;;;5.90;4.50;;;12.00;99.90;12.20;100889.00;;;;4923000;28;93318;-69
2023/05/14 05:11:06;;;;;;;4.70;4.03;;;12.10;99.90;12.40;100888.00;;;;4922456;28;93716;-69
2023/05/14 05:13:31;;;;;;;4.73;4.10;;;12.30;99.90;12.60;100881.00;;;;4922331;28;100158;-69
2023/05/14 05:15:57;;;;;;;4.83;3.90;;;12.40;99.90;12.70;100886.00;;;;4923698;28;96358;-69
2023/05/14 05:18:23;;;;;;;4.83;3.93;;;12.60;99.90;12.90;100886.00;;;;4923567;28;111603;-71
2023/05/14 05:20:48;;;;;;;6.10;4.00;;;12.70;99.90;13.00;100886.00;;;;4924256;28;121982;-69
2023/05/14 05:23:14;;;;;;;4.53;4.13;;;12.90;99.90;13.20;100888.00;;;;4923058;28;121459;-70
2023/05/14 05:25:40;;;;;;;3.33;3.03;;;13.10;99.90;13.30;100875.00;;;;4927456;28;93426;-69
2023/05/14 05:28:05;;;;;;;5.37;4.60;;;13.20;99.90;13.50;100872.00;;;;4917735;28;107759;-69
2023/05/14 05:30:31;;;;;;;9.33;4.87;;;13.40;99.90;13.80;100875.00;;;;4919792;28;123474;-69
2023/05/14 05:32:57;;;;;;;4.37;3.73;;;13.60;99.90;13.90;100874.00;;;;4918873;28;122351;-69
2023/05/14 05:35:23;;;;;;;3.83;3.43;;;13.80;99.90;14.10;100873.00;;;;4936354;28;93331;-70
2023/05/14 05:37:48;;;;;;;4.70;3.53;;;13.90;99.90;14.30;100876.00;;;;4923865;28;92909;-69
2023/05/14 05:40:14;;;;;;;6.30;3.70;;;14.10;99.90;14.40;100872.00;;;;4920182;28;121622;-69
2023/05/14 05:42:41;;;;;;;4.70;4.30;;;14.20;99.90;14.60;100872.00;;;;4923392;28;93581;-70
2023/05/14 05:45:07;;;;;;;6.70;4.17;;;14.40;99.90;14.80;100880.00;;;;4923762;28;92176;-71
2023/05/14 05:47:33;;;;;;;3.93;3.27;;;14.60;99.90;14.90;100868.00;;;;4921663;28;93261;-71
2023/05/14 05:49:59;;;;;;;6.38;4.03;;;14.80;99.90;15.20;100868.00;;;;4920916;28;122888;-71
2023/05/14 05:52:24;;;;;;;4.73;3.23;;;15.00;99.90;15.40;100872.00;;;;4917902;28;123578;-69
2023/05/14 05:54:50;;;;;;;4.07;3.20;;;15.20;99.90;15.60;100864.00;;;;4920913;28;92931;-69
2023/05/14 05:57:22;;;;;;;5.63;3.95;;;15.50;99.90;15.90;100864.00;;;;4923183;28;93312;-68
2023/05/14 05:59:48;;;;;;;3.67;3.28;;;15.70;99.90;16.00;100859.00;;;;4918800;28;94315;-70
2023/05/14 06:02:14;;;;;;;6.80;4.30;;;15.90;99.90;16.20;100862.00;;;;4918350;28;112587;-68
2023/05/14 06:04:39;;;;;;;5.95;4.43;;;16.10;99.90;16.40;100866.00;;;;4921215;28;110021;-68
2023/05/14 06:07:05;;;;;;;3.97;3.47;;;16.20;99.90;16.50;100866.00;;;;4919998;28;109168;-68
2023/05/14 06:09:34;;;;;;;3.55;3.25;;;16.40;99.90;16.70;100866.00;;;;4920883;28;122854;-69
2023/05/14 06:12:00;;;;;;;3.50;3.20;;;16.50;99.90;16.90;100856.00;;;;4921332;28;122511;-71
2023/05/14 06:14:25;;;;;;;7.00;4.57;;;16.70;99.90;17.10;100862.00;;;;4920204;28;92930;-69
2023/05/14 06:16:51;;;;;;;6.15;3.90;;;16.90;99.90;17.10;100865.00;;;;4920774;28;108185;-70
2023/05/14 06:19:17;;;;;;;4.20;3.63;;;17.00;98.90;17.20;100864.00;;;;4923609;28;123359;-68
2023/05/14 06:21:54;;;;;;;5.68;3.40;;;17.10;98.60;17.30;100857.00;;;;4920846;28;93786;-69
2023/05/14 06:24:20;;;;;;;4.35;3.50;;;17.20;98.10;17.40;100857.00;;;;4900447;28;94264;-68
2023/05/14 06:26:47;;;;;;;4.93;3.78;;;17.30;97.90;17.60;100858.00;;;;4917649;28;113580;-70
2023/05/14 06:29:13;;;;;;;5.80;3.85;;;17.40;97.10;17.70;100860.00;;;;4920966;28;92871;-69
2023/05/14 06:31:38;;;;;;;4.97;3.70;;;17.60;96.20;17.90;100860.00;;;;4923843;28;122977;-68
2023/05/14 06:34:04;;;;;;;4.68;4.28;;;17.70;95.90;18.00;100863.00;;;;4925636;28;110885;-69
2023/05/14 06:36:30;;;;;;;5.97;3.90;;;17.80;94.90;18.10;100856.00;;;;4909752;28;93218;-71
2023/05/14 06:38:55;;;;;;;5.32;3.28;;;17.90;94.40;18.20;100848.00;;;;4925438;28;93464;-69
2023/05/14 06:41:21;;;;;;;4.45;3.58;;;18.00;94.00;18.30;100853.00;;;;4925742;28;122365;-68
2023/05/14 06:43:47;;;;;;;3.97;3.42;;;18.10;92.50;18.40;100848.00;;;;4927794;28;92969;-68
2023/05/14 06:46:12;;;;;;;4.82;3.50;;;18.20;92.90;18.60;100848.00;;;;4924977;28;108911;-67
2023/05/14 06:48:38;;;;;;;3.95;3.42;;;18.40;92.90;18.80;100847.00;;;;4922961;28;122684;-68
2023/05/14 06:51:04;;;;;;;5.88;4.18;;;18.60;92.60;19.10;100843.00;;;;4925749;28;93494;-69
2023/05/14 06:53:30;;;;;;;4.57;4.00;;;18.80;92.30;19.40;100848.00;;;;4922212;28;93109;-69
2023/05/14 06:55:56;;;;;;;8.23;3.65;;;19.10;91.50;19.60;100844.00;;;;4927141;28;93304;-68
2023/05/14 06:58:21;;;;;;;8.85;3.70;;;19.30;91.00;19.80;100844.00;;;;4922714;28;121672;-68
2023/05/14 07:00:47;;;;;;;3.70;3.10;;;19.50;88.40;19.90;100847.00;;;;4924939;28;123770;-69
2023/05/14 07:03:13;;;;;;;6.35;3.78;;;19.70;87.30;20.10;100846.00;;;;4922485;28;110747;-70
2023/05/14 07:05:40;;;;;;;8.27;3.88;;;19.90;86.00;20.30;100844.00;;;;4922941;28;106834;-68
2023/05/14 07:08:05;;;;;;;4.35;3.78;;;20.10;83.20;20.40;100849.00;;;;4924941;28;94200;-68
2023/05/14 07:10:31;;;;;;;4.22;2.85;;;20.20;82.80;20.60;100837.00;;;;4925709;28;96836;-68
2023/05/14 07:12:57;;;;;;;4.97;2.55;;;20.40;80.90;20.80;100830.00;;;;4922668;28;93146;-68
2023/05/14 07:15:22;;;;;;;3.08;2.78;;;20.50;79.40;20.90;100843.00;;;;4920583;28;93373;-67
2023/05/14 07:17:48;;;;;;;5.32;4.03;;;20.70;78.30;21.00;100826.00;;;;4924065;28;101288;-68
2023/05/14 07:20:14;;;;;;;4.15;3.25;;;20.80;76.30;21.10;100818.00;;;;4927198;28;120931;-68
2023/05/14 07:22:39;;;;;;;4.63;2.75;;;20.90;75.80;21.20;100820.00;;;;4918869;28;112705;-67
2023/05/14 07:25:06;;;;;;;4.57;3.00;;;21.00;75.40;21.40;100815.00;;;;4926484;28;108358;-68
2023/05/14 07:27:31;;;;;;;7.05;3.38;;;21.20;71.00;21.30;100813.00;;;;4922777;28;93865;-71
2023/05/14 07:29:57;;;;;;;4.25;3.03;;;21.20;70.30;21.30;100812.00;;;;4920815;28;121079;-70
2023/05/14 07:32:23;;;;;;;6.20;3.00;;;21.20;70.30;21.40;100809.00;;;;4903062;28;109247;-68
2023/05/14 07:34:49;;;;;;;4.20;2.83;;;21.20;70.30;21.60;100809.00;;;;4922455;28;93049;-68
2023/05/14 07:37:15;;;;;;;4.35;3.22;;;21.40;70.50;21.80;100807.00;;;;4921627;28;123113;-70
2023/05/14 07:39:40;;;;;;;4.32;3.20;;;21.60;69.30;22.00;100813.00;;;;4921438;28;122728;-68
2023/05/14 07:42:06;;;;;;;6.00;3.30;;;21.80;69.10;22.20;100800.00;;;;4924017;28;92962;-68
2023/05/14 07:44:32;;;;;;;6.00;3.28;;;22.00;66.00;22.20;100810.00;;;;4921834;28;109202;-68
2023/05/14 07:46:57;;;;;;;3.92;2.88;;;22.00;65.00;22.20;100806.00;;;;4910357;28;121450;-68
2023/05/14 07:49:23;;;;;;;7.22;3.30;;;22.10;62.90;22.20;100804.00;;;;4918221;28;121346;-67
2023/05/14 07:51:49;;;;;;;5.03;2.80;;;22.10;60.20;22.10;100805.00;;;;4924181;28;110667;-68
2023/05/14 07:54:15;;;;;;;3.47;3.03;;;22.00;60.10;22.10;100797.00;;;;4903328;28;93955;-68
2023/05/14 07:56:41;;;;;;;3.65;3.33;;;21.90;61.20;22.20;100802.00;;;;4921746;28;114041;-70
2023/05/14 07:59:07;;;;;;;3.10;2.78;;;22.00;59.90;22.20;100807.00;;;;4921747;28;93841;-67
2023/05/14 08:01:32;;;;;;;4.60;2.85;;;22.00;61.00;22.40;100795.00;;;;4895928;28;94633;-68
2023/05/14 08:04:01;;;;;;;3.42;2.95;;;22.10;61.50;22.60;100803.00;;;;4921171;28;108814;-69
2023/05/14 08:06:27;;;;;;;4.78;3.28;;;22.30;61.00;22.80;100802.00;;;;4906241;28;121935;-68
2023/05/14 08:08:53;;;;;;;3.25;2.78;;;22.50;60.30;23.00;100797.00;;;;4929459;28;93420;-67
2023/05/14 08:11:18;;;;;;;6.03;2.15;;;22.80;59.60;23.20;100797.00;;;;4924693;28;110810;-69
2023/05/14 08:13:44;;;;;;;3.10;2.80;;;22.90;58.90;23.20;100796.00;;;;4918212;28;109223;-68
2023/05/14 08:16:10;;;;;;;3.40;2.55;;;23.00;58.30;23.30;100794.00;;;;4921840;28;121805;-70
2023/05/14 08:18:35;;;;;;;2.95;2.63;;;23.10;57.40;23.40;100799.00;;;;4936347;28;95240;-68
2023/05/14 08:21:01;;;;;;;2.30;2.10;;;23.20;57.80;23.60;100789.00;;;;4922584;28;109862;-71
2023/05/14 08:23:27;;;;;;;4.25;2.92;;;23.40;57.00;23.80;100792.00;;;;4927206;28;93854;-68
2023/05/14 08:25:52;;;;;;;4.05;2.53;;;23.50;56.00;23.90;100777.00;;;;4921275;28;103595;-69
2023/05/14 08:28:18;;;;;;;5.60;3.00;;;23.70;55.30;24.00;100777.00;;;;4922913;28;93037;-68
2023/05/14 08:30:46;;;;;;;3.60;2.90;;;23.70;55.60;24.20;100768.00;;;;4922041;28;110911;-72
2023/05/14 08:33:12;;;;;;;3.85;3.05;;;23.90;55.30;24.30;100768.00;;;;4919107;28;108395;-70
2023/05/14 08:35:38;;;;;;;2.92;2.20;;;24.00;54.30;24.50;100772.00;;;;4925058;28;99309;-70
2023/05/14 08:38:03;;;;;;;3.60;2.45;;;24.20;54.20;24.60;100766.00;;;;4910256;28;112804;-71
2023/05/14 08:40:29;;;;;;;4.65;2.80;;;24.30;53.40;24.60;100766.00;;;;4919321;28;93227;-71
2023/05/14 08:42:56;;;;;;;5.07;2.60;;;24.30;53.10;24.80;100761.00;;;;4902857;28;109739;-73
2023/05/14 08:45:30;;;;;;;3.63;2.28;;;24.50;52.90;25.00;100761.00;;;;4923635;28;121718;-71
2023/05/14 08:47:58;;;;;;;1.95;1.67;;;24.60;52.60;25.10;100750.00;;;;4919059;28;93808;-68
2023/05/14 08:50:25;;;;;;;7.45;2.22;;;24.80;51.10;25.20;100751.00;;;;4921866;28;92812;-70
2023/05/14 08:52:51;;;;;;;5.63;2.22;;;25.00;47.20;25.10;100760.00;;;;4923781;28;93078;-69
2023/05/14 08:55:18;;;;;;;2.60;1.80;;;24.90;46.60;24.80;100757.00;;;;4874882;28;122505;-70
2023/05/14 08:57:45;;;;;;;2.63;1.98;;;24.60;47.30;24.70;100761.00;;;;4905844;28;94360;-69
2023/05/14 09:00:11;;;;;;;2.40;2.05;;;24.40;47.40;24.80;100760.00;;;;4921542;28;92181;-70
2023/05/14 09:02:40;;;;;;;2.33;2.00;;;24.50;48.40;24.90;100764.00;;;;4919257;28;94558;-72
2023/05/14 09:05:08;;;;;;;2.78;2.13;;;24.60;48.00;25.10;100753.00;;;;4907475;28;92986;-69
2023/05/14 09:07:36;;;;;;;2.97;1.60;;;24.70;47.80;25.10;100761.00;;;;4917873;28;94254;-69
2023/05/14 09:10:03;;;;;;;4.07;2.45;;;24.80;46.70;25.10;100756.00;;;;4920966;28;109874;-70
2023/05/14 09:12:29;;;;;;;3.80;2.15;;;24.80;46.70;25.00;100744.00;;;;4848616;28;93486;-68
2023/05/14 09:14:54;;;;;;;3.42;2.35;;;24.80;46.10;24.80;100757.00;;;;4906555;28;93141;-71
2023/05/14 09:17:20;;;;;;;3.65;2.05;;;24.60;45.60;24.40;100749.00;;;;4915471;28;121863;-69
2023/05/14 09:19:51;;;;;;;3.75;2.35;;;24.30;45.10;24.20;100764.00;;;;4908758;28;114511;-70
2023/05/14 09:22:17;;;;;;;2.72;2.50;;;24.10;46.50;24.10;100744.00;;;;4042386;28;10000351;-70
2023/05/14 09:24:44;;;;;;;3.85;3.45;;;23.90;46.50;24.00;100744.00;;;;4922160;28;92380;-71
2023/05/14 09:27:19;;;;;;;5.93;4.03;;;23.70;46.80;23.90;100732.00;;;;4923764;28;92976;-69
2023/05/14 09:29:45;;;;;;;5.35;2.95;;;23.60;47.30;23.90;100742.00;;;;4921943;28;93684;-71
2023/05/14 09:32:10;;;;;;;4.50;2.60;;;23.60;47.90;23.70;100740.00;;;;4916083;28;123469;-72
2023/05/14 09:34:36;;;;;;;4.18;2.70;;;23.50;45.70;23.50;100744.00;;;;4921217;28;110993;-69
2023/05/14 09:37:08;;;;;;;2.08;1.75;;;23.30;46.30;23.30;100746.00;;;;4923031;28;92705;-70
2023/05/14 09:39:36;;;;;;;3.55;2.38;;;23.10;46.90;23.20;100738.00;;;;4919443;28;121644;-72
2023/05/14 09:42:02;;;;;;;4.00;3.05;;;23.00;46.60;23.20;100732.00;;;;4918867;28;93765;-70
2023/05/14 09:44:28;;;;;;;2.17;1.98;;;22.90;46.50;23.40;100731.00;;;;4918454;28;93082;-69
2023/05/14 09:46:54;;;;;;;2.03;1.80;;;23.00;46.80;23.60;100724.00;;;;4918972;28;93030;-72
2023/05/14 09:49:21;;;;;;;1.88;1.73;;;23.20;46.40;23.70;100728.00;;;;4923557;28;93469;-72
2023/05/14 09:51:48;;;;;;;1.83;1.23;;;23.30;45.90;23.70;100718.00;;;;4920850;28;94474;-71
2023/05/14 09:54:14;;;;;;;3.42;1.77;;;23.30;45.20;23.50;100727.00;;;;4920132;28;94683;-71
2023/05/14 09:56:40;;;;;;;2.15;1.77;;;23.20;45.40;23.50;100731.00;;;;4920957;28;94164;-69
2023/05/14 09:59:05;;;;;;;1.88;1.77;;;23.20;46.20;23.50;100731.00;;;;4919136;28;123267;-71
2023/05/14 10:01:32;;;;;;;2.40;1.65;;;23.10;45.60;23.20;100720.00;;;;4914904;28;123117;-72
2023/05/14 10:03:58;;;;;;;2.75;1.90;;;23.00;45.30;22.90;100716.00;;;;4921073;28;109518;-72
2023/05/14 10:06:30;;;;;;;4.40;1.88;;;22.70;45.10;22.70;100718.00;;;;4918129;28;109116;-73
2023/05/14 10:09:02;;;;;;;6.65;2.40;;;22.50;46.10;22.40;100699.00;;;;4919148;28;95190;-71
2023/05/14 10:11:36;;;;;;;3.15;2.20;;;22.20;46.40;22.10;100717.00;;;;4903022;28;94388;-71
2023/05/14 10:14:38;;;;;;;2.50;1.67;;;22.00;47.20;22.00;100702.00;;;;4933360;28;92340;-69
2023/05/14 10:17:05;;;;;;;5.07;1.70;;;21.90;47.90;22.00;100706.00;;;;4893547;28;98823;-70
2023/05/14 10:19:36;;;;;;;2.05;1.85;;;21.80;48.00;21.90;100700.00;;;;4919626;28;93509;-71
2023/05/14 10:22:07;;;;;;;2.30;1.75;;;21.70;47.30;21.80;100699.00;;;;4923065;28;93881;-72
2023/05/14 10:24:33;;;;;;;1.77;1.67;;;21.60;48.00;21.70;100692.00;;;;4921046;28;110643;-69
2023/05/14 10:26:59;;;;;;;2.00;1.80;;;21.50;48.20;21.70;100702.00;;;;4914022;28;108501;-69
2023/05/14 10:29:35;;;;;;;1.80;1.70;;;21.50;48.60;21.70;100696.00;;;;4924830;28;123938;-72
2023/05/14 10:32:08;;;;;;;2.92;2.00;;;21.50;48.60;21.60;100699.00;;;;4919330;28;93227;-72
2023/05/14 10:34:45;;;;;;;2.80;1.85;;;21.40;48.90;21.50;100697.00;;;;4923306;28;93065;-69
2023/05/14 10:37:26;;;;;;;2.53;1.83;;;21.30;49.50;21.20;100713.00;;;;4924248;28;93211;-69
2023/05/14 10:40:01;;;;;;;5.00;2.20;;;21.10;51.00;20.80;100701.00;;;;4924067;28;92321;-69
2023/05/14 10:42:34;;;;;;;3.25;2.30;;;20.80;52.20;20.50;100712.00;;;;4926929;28;93070;-71